sensor_id;sensor_type;location;lat;lon;timestamp;P1;durP1;ratioP1;P2;durP2;ratioP2
79036;SDS011;68434;59.896;30.474;2023-08-30T00:01:50;18.10;;;12.02;;
79036;SDS011;68434;59.896;30.474;2023-08-30T00:04:19;20.80;;;15.13;;
79036;SDS011;68434;59.896;30.474;2023-08-30T00:06:47;21.65;;;14.52;;
79036;SDS011;68434;59.896;30.474;2023-08-30T00:09:15;19.52;;;14.35;;
79036;SDS011;68434;59.896;30.474;2023-08-30T00:11:43;20.10;;;14.52;;
79036;SDS011;68434;59.896;30.474;2023-08-30T00:14:10;19.40;;;14.10;;
79036;SDS011;68434;59.896;30.474;2023-08-30T00:16:37;16.92;;;12.18;;
79036;SDS011;68434;59.896;30.474;2023-08-30T00:19:05;17.75;;;12.85;;
79036;SDS011;68434;59.896;30.474;2023-08-30T00:21:34;18.92;;;13.52;;
79036;SDS011;68434;59.896;30.474;2023-08-30T00:24:02;19.13;;;12.30;;
79036;SDS011;68434;59.896;30.474;2023-08-30T00:26:30;17.85;;;11.77;;
79036;SDS011;68434;59.896;30.474;2023-08-30T00:28:59;17.27;;;11.27;;
79036;SDS011;68434;59.896;30.474;2023-08-30T00:31:28;16.15;;;11.02;;
79036;SDS011;68434;59.896;30.474;2023-08-30T00:33:56;17.48;;;11.07;;
79036;SDS011;68434;59.896;30.474;2023-08-30T00:36:23;17.52;;;11.48;;
79036;SDS011;68434;59.896;30.474;2023-08-30T00:38:52;15.20;;;10.63;;
79036;SDS011;68434;59.896;30.474;2023-08-30T00:41:19;16.52;;;10.70;;
79036;SDS011;68434;59.896;30.474;2023-08-30T00:43:47;17.52;;;10.85;;
79036;SDS011;68434;59.896;30.474;2023-08-30T00:46:14;19.17;;;10.90;;
79036;SDS011;68434;59.896;30.474;2023-08-30T00:48:43;13.63;;;10.38;;
79036;SDS011;68434;59.896;30.474;2023-08-30T00:51:11;18.35;;;10.50;;
79036;SDS011;68434;59.896;30.474;2023-08-30T00:53:39;14.52;;;10.93;;
79036;SDS011;68434;59.896;30.474;2023-08-30T00:56:08;14.82;;;10.73;;
79036;SDS011;68434;59.896;30.474;2023-08-30T00:58:35;14.88;;;10.95;;
79036;SDS011;68434;59.896;30.474;2023-08-30T01:01:05;17.02;;;11.18;;
79036;SDS011;68434;59.896;30.474;2023-08-30T01:03:35;13.70;;;9.65;;
79036;SDS011;68434;59.896;30.474;2023-08-30T01:06:03;14.45;;;10.70;;
79036;SDS011;68434;59.896;30.474;2023-08-30T01:08:31;18.92;;;9.98;;
79036;SDS011;68434;59.896;30.474;2023-08-30T01:10:59;19.15;;;11.05;;
79036;SDS011;68434;59.896;30.474;2023-08-30T01:13:33;13.60;;;10.73;;
79036;SDS011;68434;59.896;30.474;2023-08-30T01:16:07;19.67;;;11.13;;
79036;SDS011;68434;59.896;30.474;2023-08-30T01:18:35;15.10;;;10.27;;
79036;SDS011;68434;59.896;30.474;2023-08-30T01:21:05;17.17;;;10.10;;
79036;SDS011;68434;59.896;30.474;2023-08-30T01:23:46;18.60;;;10.88;;
79036;SDS011;68434;59.896;30.474;2023-08-30T01:26:22;15.25;;;11.23;;
79036;SDS011;68434;59.896;30.474;2023-08-30T01:28:57;17.17;;;11.75;;
79036;SDS011;68434;59.896;30.474;2023-08-30T01:31:28;15.32;;;11.68;;
79036;SDS011;68434;59.896;30.474;2023-08-30T01:34:00;15.60;;;11.50;;
79036;SDS011;68434;59.896;30.474;2023-08-30T01:36:29;16.85;;;11.00;;
79036;SDS011;68434;59.896;30.474;2023-08-30T01:38:58;16.27;;;11.20;;
79036;SDS011;68434;59.896;30.474;2023-08-30T01:41:26;15.00;;;10.38;;
79036;SDS011;68434;59.896;30.474;2023-08-30T01:46:25;17.17;;;11.48;;
79036;SDS011;68434;59.896;30.474;2023-08-30T01:48:54;16.73;;;10.70;;
79036;SDS011;68434;59.896;30.474;2023-08-30T01:53:51;17.88;;;10.50;;
79036;SDS011;68434;59.896;30.474;2023-08-30T01:56:18;17.10;;;11.25;;
79036;SDS011;68434;59.896;30.474;2023-08-30T01:58:46;16.42;;;11.15;;
79036;SDS011;68434;59.896;30.474;2023-08-30T02:01:13;16.13;;;11.30;;
79036;SDS011;68434;59.896;30.474;2023-08-30T02:03:44;17.42;;;11.02;;
79036;SDS011;68434;59.896;30.474;2023-08-30T02:06:13;15.48;;;10.77;;
79036;SDS011;68434;59.896;30.474;2023-08-30T02:08:45;16.15;;;10.98;;
79036;SDS011;68434;59.896;30.474;2023-08-30T02:11:19;16.70;;;10.80;;
79036;SDS011;68434;59.896;30.474;2023-08-30T02:13:50;18.23;;;10.73;;
79036;SDS011;68434;59.896;30.474;2023-08-30T02:16:19;17.55;;;10.88;;
79036;SDS011;68434;59.896;30.474;2023-08-30T02:18:50;16.40;;;10.15;;
79036;SDS011;68434;59.896;30.474;2023-08-30T02:21:18;14.38;;;10.48;;
79036;SDS011;68434;59.896;30.474;2023-08-30T02:23:49;16.02;;;10.60;;
79036;SDS011;68434;59.896;30.474;2023-08-30T02:26:17;14.80;;;10.98;;
79036;SDS011;68434;59.896;30.474;2023-08-30T02:28:47;15.40;;;10.88;;
79036;SDS011;68434;59.896;30.474;2023-08-30T02:31:14;16.80;;;10.82;;
79036;SDS011;68434;59.896;30.474;2023-08-30T02:33:44;19.70;;;11.15;;
79036;SDS011;68434;59.896;30.474;2023-08-30T02:36:12;15.65;;;10.50;;
79036;SDS011;68434;59.896;30.474;2023-08-30T02:38:40;15.18;;;10.23;;
79036;SDS011;68434;59.896;30.474;2023-08-30T02:41:07;14.48;;;9.77;;
79036;SDS011;68434;59.896;30.474;2023-08-30T02:46:03;15.25;;;10.40;;
79036;SDS011;68434;59.896;30.474;2023-08-30T02:48:31;13.73;;;10.05;;
79036;SDS011;68434;59.896;30.474;2023-08-30T02:50:59;11.95;;;8.77;;
79036;SDS011;68434;59.896;30.474;2023-08-30T02:53:28;12.35;;;9.02;;
79036;SDS011;68434;59.896;30.474;2023-08-30T02:55:55;13.13;;;8.25;;
79036;SDS011;68434;59.896;30.474;2023-08-30T02:58:23;11.07;;;8.00;;
79036;SDS011;68434;59.896;30.474;2023-08-30T03:00:56;11.35;;;7.43;;
79036;SDS011;68434;59.896;30.474;2023-08-30T03:03:23;10.35;;;7.38;;
79036;SDS011;68434;59.896;30.474;2023-08-30T03:05:52;11.23;;;7.80;;
79036;SDS011;68434;59.896;30.474;2023-08-30T03:08:20;10.13;;;7.22;;
79036;SDS011;68434;59.896;30.474;2023-08-30T03:10:48;12.30;;;7.35;;
79036;SDS011;68434;59.896;30.474;2023-08-30T03:13:17;9.00;;;6.25;;
79036;SDS011;68434;59.896;30.474;2023-08-30T03:15:44;9.73;;;6.32;;
79036;SDS011;68434;59.896;30.474;2023-08-30T03:18:11;10.57;;;6.57;;
79036;SDS011;68434;59.896;30.474;2023-08-30T03:20:39;9.88;;;6.15;;
79036;SDS011;68434;59.896;30.474;2023-08-30T03:23:07;10.30;;;6.25;;
79036;SDS011;68434;59.896;30.474;2023-08-30T03:25:34;9.23;;;5.97;;
79036;SDS011;68434;59.896;30.474;2023-08-30T03:28:03;8.13;;;5.38;;
79036;SDS011;68434;59.896;30.474;2023-08-30T03:30:32;7.50;;;5.40;;
79036;SDS011;68434;59.896;30.474;2023-08-30T03:32:59;8.95;;;5.63;;
79036;SDS011;68434;59.896;30.474;2023-08-30T03:35:27;6.70;;;5.28;;
79036;SDS011;68434;59.896;30.474;2023-08-30T03:37:55;8.35;;;5.50;;
79036;SDS011;68434;59.896;30.474;2023-08-30T03:40:23;6.78;;;5.40;;
79036;SDS011;68434;59.896;30.474;2023-08-30T03:42:50;7.95;;;5.40;;
79036;SDS011;68434;59.896;30.474;2023-08-30T03:45:19;7.93;;;6.07;;
79036;SDS011;68434;59.896;30.474;2023-08-30T03:47:47;6.88;;;5.13;;
79036;SDS011;68434;59.896;30.474;2023-08-30T03:50:14;7.90;;;4.93;;
79036;SDS011;68434;59.896;30.474;2023-08-30T03:52:42;7.90;;;5.68;;
79036;SDS011;68434;59.896;30.474;2023-08-30T03:55:09;7.18;;;5.35;;
79036;SDS011;68434;59.896;30.474;2023-08-30T03:57:36;10.07;;;5.03;;
79036;SDS011;68434;59.896;30.474;2023-08-30T04:00:04;6.25;;;4.75;;
79036;SDS011;68434;59.896;30.474;2023-08-30T04:02:42;7.85;;;4.80;;
79036;SDS011;68434;59.896;30.474;2023-08-30T04:05:10;7.43;;;4.43;;
79036;SDS011;68434;59.896;30.474;2023-08-30T04:07:39;7.10;;;4.65;;
79036;SDS011;68434;59.896;30.474;2023-08-30T04:10:07;8.13;;;4.68;;
79036;SDS011;68434;59.896;30.474;2023-08-30T04:12:35;7.78;;;4.75;;
79036;SDS011;68434;59.896;30.474;2023-08-30T04:15:04;7.80;;;4.82;;
79036;SDS011;68434;59.896;30.474;2023-08-30T04:17:33;10.40;;;6.35;;
79036;SDS011;68434;59.896;30.474;2023-08-30T04:20:02;7.88;;;5.10;;
79036;SDS011;68434;59.896;30.474;2023-08-30T04:22:30;8.98;;;5.05;;
79036;SDS011;68434;59.896;30.474;2023-08-30T04:25:00;12.38;;;5.57;;
79036;SDS011;68434;59.896;30.474;2023-08-30T04:27:29;10.48;;;5.72;;
79036;SDS011;68434;59.896;30.474;2023-08-30T04:29:56;9.35;;;5.60;;
79036;SDS011;68434;59.896;30.474;2023-08-30T04:32:24;8.48;;;5.80;;
79036;SDS011;68434;59.896;30.474;2023-08-30T04:34:51;10.57;;;6.75;;
79036;SDS011;68434;59.896;30.474;2023-08-30T04:37:20;9.57;;;6.28;;
79036;SDS011;68434;59.896;30.474;2023-08-30T04:39:47;7.50;;;5.47;;
79036;SDS011;68434;59.896;30.474;2023-08-30T04:42:15;8.63;;;6.13;;
79036;SDS011;68434;59.896;30.474;2023-08-30T04:47:11;8.55;;;6.07;;
79036;SDS011;68434;59.896;30.474;2023-08-30T04:49:38;9.48;;;5.82;;
79036;SDS011;68434;59.896;30.474;2023-08-30T04:52:06;8.82;;;6.15;;
79036;SDS011;68434;59.896;30.474;2023-08-30T04:54:36;7.53;;;5.32;;
79036;SDS011;68434;59.896;30.474;2023-08-30T04:57:04;8.95;;;5.55;;
79036;SDS011;68434;59.896;30.474;2023-08-30T04:59:33;9.45;;;5.85;;
79036;SDS011;68434;59.896;30.474;2023-08-30T05:02:00;8.52;;;5.57;;
79036;SDS011;68434;59.896;30.474;2023-08-30T05:04:29;8.18;;;5.03;;
79036;SDS011;68434;59.896;30.474;2023-08-30T05:06:56;6.55;;;5.10;;
79036;SDS011;68434;59.896;30.474;2023-08-30T05:09:24;6.43;;;4.50;;
79036;SDS011;68434;59.896;30.474;2023-08-30T05:11:54;6.18;;;4.43;;
79036;SDS011;68434;59.896;30.474;2023-08-30T05:14:21;7.65;;;4.75;;
79036;SDS011;68434;59.896;30.474;2023-08-30T05:16:49;8.77;;;4.43;;
79036;SDS011;68434;59.896;30.474;2023-08-30T05:19:17;7.50;;;4.28;;
79036;SDS011;68434;59.896;30.474;2023-08-30T05:21:45;6.88;;;4.45;;
79036;SDS011;68434;59.896;30.474;2023-08-30T05:24:13;6.50;;;4.43;;
79036;SDS011;68434;59.896;30.474;2023-08-30T05:26:40;6.47;;;4.07;;
79036;SDS011;68434;59.896;30.474;2023-08-30T05:29:09;7.65;;;4.72;;
79036;SDS011;68434;59.896;30.474;2023-08-30T05:31:36;8.95;;;4.70;;
79036;SDS011;68434;59.896;30.474;2023-08-30T05:34:23;6.35;;;4.20;;
79036;SDS011;68434;59.896;30.474;2023-08-30T05:40:10;6.10;;;4.38;;
79036;SDS011;68434;59.896;30.474;2023-08-30T05:42:43;5.75;;;4.07;;
79036;SDS011;68434;59.896;30.474;2023-08-30T05:47:40;6.25;;;4.32;;
79036;SDS011;68434;59.896;30.474;2023-08-30T05:50:08;6.30;;;4.63;;
79036;SDS011;68434;59.896;30.474;2023-08-30T05:52:36;6.03;;;4.18;;
79036;SDS011;68434;59.896;30.474;2023-08-30T05:55:07;6.20;;;4.25;;
79036;SDS011;68434;59.896;30.474;2023-08-30T05:57:35;5.88;;;4.40;;
79036;SDS011;68434;59.896;30.474;2023-08-30T06:00:02;6.68;;;4.32;;
79036;SDS011;68434;59.896;30.474;2023-08-30T06:02:41;8.68;;;4.18;;
79036;SDS011;68434;59.896;30.474;2023-08-30T06:05:09;7.30;;;4.32;;
79036;SDS011;68434;59.896;30.474;2023-08-30T06:07:36;5.82;;;4.30;;
79036;SDS011;68434;59.896;30.474;2023-08-30T06:10:04;9.23;;;4.28;;
79036;SDS011;68434;59.896;30.474;2023-08-30T06:12:31;7.07;;;4.05;;
79036;SDS011;68434;59.896;30.474;2023-08-30T06:14:59;5.47;;;4.10;;
79036;SDS011;68434;59.896;30.474;2023-08-30T06:17:29;6.88;;;4.43;;
79036;SDS011;68434;59.896;30.474;2023-08-30T06:19:58;7.38;;;4.43;;
79036;SDS011;68434;59.896;30.474;2023-08-30T06:22:26;7.63;;;4.28;;
79036;SDS011;68434;59.896;30.474;2023-08-30T06:24:53;7.07;;;3.97;;
79036;SDS011;68434;59.896;30.474;2023-08-30T06:27:21;6.63;;;4.15;;
79036;SDS011;68434;59.896;30.474;2023-08-30T06:29:49;8.95;;;4.82;;
79036;SDS011;68434;59.896;30.474;2023-08-30T06:32:17;10.25;;;5.18;;
79036;SDS011;68434;59.896;30.474;2023-08-30T06:34:45;8.55;;;5.10;;
79036;SDS011;68434;59.896;30.474;2023-08-30T06:37:13;9.43;;;4.95;;
79036;SDS011;68434;59.896;30.474;2023-08-30T06:39:41;7.43;;;4.20;;
79036;SDS011;68434;59.896;30.474;2023-08-30T06:42:08;11.00;;;4.70;;
79036;SDS011;68434;59.896;30.474;2023-08-30T06:44:39;7.13;;;4.82;;
79036;SDS011;68434;59.896;30.474;2023-08-30T06:47:06;7.95;;;4.63;;
79036;SDS011;68434;59.896;30.474;2023-08-30T06:49:34;7.85;;;3.83;;
79036;SDS011;68434;59.896;30.474;2023-08-30T06:52:01;8.98;;;3.88;;
79036;SDS011;68434;59.896;30.474;2023-08-30T06:54:32;5.53;;;3.63;;
79036;SDS011;68434;59.896;30.474;2023-08-30T06:57:01;5.13;;;3.70;;
79036;SDS011;68434;59.896;30.474;2023-08-30T06:59:28;7.40;;;3.70;;
79036;SDS011;68434;59.896;30.474;2023-08-30T07:01:56;7.28;;;3.75;;
79036;SDS011;68434;59.896;30.474;2023-08-30T07:04:24;6.65;;;4.78;;
79036;SDS011;68434;59.896;30.474;2023-08-30T07:06:51;8.05;;;5.60;;
79036;SDS011;68434;59.896;30.474;2023-08-30T07:09:19;6.95;;;4.22;;
79036;SDS011;68434;59.896;30.474;2023-08-30T07:11:49;7.93;;;3.72;;
79036;SDS011;68434;59.896;30.474;2023-08-30T07:14:16;5.75;;;4.00;;
79036;SDS011;68434;59.896;30.474;2023-08-30T07:16:44;6.07;;;3.55;;
79036;SDS011;68434;59.896;30.474;2023-08-30T07:19:11;7.45;;;3.47;;
79036;SDS011;68434;59.896;30.474;2023-08-30T07:21:38;5.47;;;3.17;;
79036;SDS011;68434;59.896;30.474;2023-08-30T07:24:06;6.97;;;3.33;;
79036;SDS011;68434;59.896;30.474;2023-08-30T07:26:34;4.43;;;2.97;;
79036;SDS011;68434;59.896;30.474;2023-08-30T07:29:04;5.22;;;3.20;;
79036;SDS011;68434;59.896;30.474;2023-08-30T07:31:31;3.90;;;2.83;;
79036;SDS011;68434;59.896;30.474;2023-08-30T07:33:59;5.35;;;2.85;;
79036;SDS011;68434;59.896;30.474;2023-08-30T07:36:27;5.10;;;2.83;;
79036;SDS011;68434;59.896;30.474;2023-08-30T07:38:55;4.72;;;2.78;;
79036;SDS011;68434;59.896;30.474;2023-08-30T07:41:22;5.10;;;2.75;;
79036;SDS011;68434;59.896;30.474;2023-08-30T07:43:49;5.75;;;3.17;;
79036;SDS011;68434;59.896;30.474;2023-08-30T07:46:18;4.50;;;2.90;;
79036;SDS011;68434;59.896;30.474;2023-08-30T07:48:45;3.35;;;2.65;;
79036;SDS011;68434;59.896;30.474;2023-08-30T07:51:13;5.32;;;2.80;;
79036;SDS011;68434;59.896;30.474;2023-08-30T07:53:40;4.60;;;2.83;;
79036;SDS011;68434;59.896;30.474;2023-08-30T07:56:07;5.53;;;4.13;;
79036;SDS011;68434;59.896;30.474;2023-08-30T07:58:35;6.47;;;3.60;;
79036;SDS011;68434;59.896;30.474;2023-08-30T08:01:03;6.68;;;3.25;;
79036;SDS011;68434;59.896;30.474;2023-08-30T08:03:31;4.60;;;3.15;;
79036;SDS011;68434;59.896;30.474;2023-08-30T08:05:59;4.93;;;3.25;;
79036;SDS011;68434;59.896;30.474;2023-08-30T08:08:26;5.70;;;3.00;;
79036;SDS011;68434;59.896;30.474;2023-08-30T08:10:54;5.85;;;3.20;;
79036;SDS011;68434;59.896;30.474;2023-08-30T08:13:22;4.75;;;3.15;;
79036;SDS011;68434;59.896;30.474;2023-08-30T08:15:49;4.70;;;3.20;;
79036;SDS011;68434;59.896;30.474;2023-08-30T08:18:16;5.63;;;2.78;;
79036;SDS011;68434;59.896;30.474;2023-08-30T08:20:45;5.57;;;3.10;;
79036;SDS011;68434;59.896;30.474;2023-08-30T08:23:13;11.02;;;7.53;;
79036;SDS011;68434;59.896;30.474;2023-08-30T08:25:40;6.82;;;5.07;;
79036;SDS011;68434;59.896;30.474;2023-08-30T08:28:07;5.05;;;3.83;;
79036;SDS011;68434;59.896;30.474;2023-08-30T08:30:35;6.50;;;3.80;;
79036;SDS011;68434;59.896;30.474;2023-08-30T08:35:30;5.38;;;3.28;;
79036;SDS011;68434;59.896;30.474;2023-08-30T08:37:59;6.13;;;3.13;;
79036;SDS011;68434;59.896;30.474;2023-08-30T08:40:27;7.72;;;3.17;;
79036;SDS011;68434;59.896;30.474;2023-08-30T08:42:56;5.30;;;3.33;;
79036;SDS011;68434;59.896;30.474;2023-08-30T08:45:27;5.28;;;3.42;;
79036;SDS011;68434;59.896;30.474;2023-08-30T08:47:56;5.97;;;3.45;;
79036;SDS011;68434;59.896;30.474;2023-08-30T08:50:29;5.18;;;3.28;;
79036;SDS011;68434;59.896;30.474;2023-08-30T08:52:59;5.80;;;4.63;;
79036;SDS011;68434;59.896;30.474;2023-08-30T08:55:31;7.93;;;3.75;;
79036;SDS011;68434;59.896;30.474;2023-08-30T08:58:00;7.18;;;3.75;;
79036;SDS011;68434;59.896;30.474;2023-08-30T09:00:30;7.18;;;4.88;;
79036;SDS011;68434;59.896;30.474;2023-08-30T09:02:59;8.05;;;4.53;;
79036;SDS011;68434;59.896;30.474;2023-08-30T09:05:27;7.13;;;4.45;;
79036;SDS011;68434;59.896;30.474;2023-08-30T09:07:59;5.32;;;3.70;;
79036;SDS011;68434;59.896;30.474;2023-08-30T09:10:29;11.63;;;4.20;;
79036;SDS011;68434;59.896;30.474;2023-08-30T09:12:58;7.00;;;3.72;;
79036;SDS011;68434;59.896;30.474;2023-08-30T09:15:30;7.28;;;3.60;;
79036;SDS011;68434;59.896;30.474;2023-08-30T09:17:58;7.68;;;3.88;;
79036;SDS011;68434;59.896;30.474;2023-08-30T09:20:26;6.57;;;3.83;;
79036;SDS011;68434;59.896;30.474;2023-08-30T09:22:54;4.43;;;3.00;;
79036;SDS011;68434;59.896;30.474;2023-08-30T09:25:24;5.18;;;3.20;;
79036;SDS011;68434;59.896;30.474;2023-08-30T09:27:56;6.47;;;3.88;;
79036;SDS011;68434;59.896;30.474;2023-08-30T09:30:25;5.40;;;3.55;;
79036;SDS011;68434;59.896;30.474;2023-08-30T09:32:53;7.60;;;3.50;;
79036;SDS011;68434;59.896;30.474;2023-08-30T09:35:20;5.35;;;3.45;;
79036;SDS011;68434;59.896;30.474;2023-08-30T09:37:48;5.72;;;3.20;;
79036;SDS011;68434;59.896;30.474;2023-08-30T09:40:18;5.82;;;3.60;;
79036;SDS011;68434;59.896;30.474;2023-08-30T09:42:47;5.35;;;3.10;;
79036;SDS011;68434;59.896;30.474;2023-08-30T09:45:18;8.40;;;3.60;;
79036;SDS011;68434;59.896;30.474;2023-08-30T09:47:47;6.05;;;3.63;;
79036;SDS011;68434;59.896;30.474;2023-08-30T09:50:15;7.15;;;3.70;;
79036;SDS011;68434;59.896;30.474;2023-08-30T09:52:45;8.00;;;3.40;;
79036;SDS011;68434;59.896;30.474;2023-08-30T09:55:14;4.68;;;3.20;;
79036;SDS011;68434;59.896;30.474;2023-08-30T09:57:42;13.25;;;3.67;;
79036;SDS011;68434;59.896;30.474;2023-08-30T10:00:12;15.45;;;4.00;;
79036;SDS011;68434;59.896;30.474;2023-08-30T10:02:41;9.52;;;3.63;;
79036;SDS011;68434;59.896;30.474;2023-08-30T10:05:09;9.05;;;2.83;;
79036;SDS011;68434;59.896;30.474;2023-08-30T10:07:38;5.43;;;2.95;;
79036;SDS011;68434;59.896;30.474;2023-08-30T10:12:34;6.22;;;3.00;;
79036;SDS011;68434;59.896;30.474;2023-08-30T10:15:01;9.35;;;2.85;;
79036;SDS011;68434;59.896;30.474;2023-08-30T10:17:32;5.40;;;3.10;;
79036;SDS011;68434;59.896;30.474;2023-08-30T10:20:03;4.20;;;2.42;;
79036;SDS011;68434;59.896;30.474;2023-08-30T10:22:32;6.97;;;3.20;;
79036;SDS011;68434;59.896;30.474;2023-08-30T10:25:05;4.53;;;2.53;;
79036;SDS011;68434;59.896;30.474;2023-08-30T10:27:36;4.80;;;2.55;;
79036;SDS011;68434;59.896;30.474;2023-08-30T10:30:06;5.20;;;3.10;;
79036;SDS011;68434;59.896;30.474;2023-08-30T10:32:39;5.57;;;3.22;;
79036;SDS011;68434;59.896;30.474;2023-08-30T10:35:10;5.90;;;3.40;;
79036;SDS011;68434;59.896;30.474;2023-08-30T10:37:39;9.25;;;4.10;;
79036;SDS011;68434;59.896;30.474;2023-08-30T10:40:07;8.20;;;3.88;;
79036;SDS011;68434;59.896;30.474;2023-08-30T10:42:35;8.70;;;4.00;;
79036;SDS011;68434;59.896;30.474;2023-08-30T10:45:04;7.10;;;3.78;;
79036;SDS011;68434;59.896;30.474;2023-08-30T10:47:34;7.25;;;4.20;;
79036;SDS011;68434;59.896;30.474;2023-08-30T10:50:06;7.22;;;3.85;;
79036;SDS011;68434;59.896;30.474;2023-08-30T10:52:34;5.68;;;3.20;;
79036;SDS011;68434;59.896;30.474;2023-08-30T10:55:06;7.40;;;3.70;;
79036;SDS011;68434;59.896;30.474;2023-08-30T10:57:34;7.13;;;3.60;;
79036;SDS011;68434;59.896;30.474;2023-08-30T11:00:08;5.10;;;3.30;;
79036;SDS011;68434;59.896;30.474;2023-08-30T11:02:53;5.78;;;3.30;;
79036;SDS011;68434;59.896;30.474;2023-08-30T11:08:27;7.13;;;3.08;;
79036;SDS011;68434;59.896;30.474;2023-08-30T11:11:04;5.18;;;3.08;;
79036;SDS011;68434;59.896;30.474;2023-08-30T11:13:36;5.72;;;2.88;;
79036;SDS011;68434;59.896;30.474;2023-08-30T11:16:07;4.53;;;2.60;;
79036;SDS011;68434;59.896;30.474;2023-08-30T11:18:38;4.18;;;2.60;;
79036;SDS011;68434;59.896;30.474;2023-08-30T11:21:08;6.18;;;2.83;;
79036;SDS011;68434;59.896;30.474;2023-08-30T11:23:38;4.97;;;2.90;;
79036;SDS011;68434;59.896;30.474;2023-08-30T11:26:06;7.80;;;3.72;;
79036;SDS011;68434;59.896;30.474;2023-08-30T11:28:35;5.90;;;3.03;;
79036;SDS011;68434;59.896;30.474;2023-08-30T11:31:07;6.53;;;3.05;;
79036;SDS011;68434;59.896;30.474;2023-08-30T11:33:34;5.13;;;3.15;;
79036;SDS011;68434;59.896;30.474;2023-08-30T11:36:02;7.45;;;3.70;;
79036;SDS011;68434;59.896;30.474;2023-08-30T11:38:32;4.55;;;3.58;;
79036;SDS011;68434;59.896;30.474;2023-08-30T11:41:01;7.43;;;3.50;;
79036;SDS011;68434;59.896;30.474;2023-08-30T11:43:30;10.48;;;4.10;;
79036;SDS011;68434;59.896;30.474;2023-08-30T11:45:58;7.30;;;4.13;;
79036;SDS011;68434;59.896;30.474;2023-08-30T11:48:30;8.68;;;4.35;;
79036;SDS011;68434;59.896;30.474;2023-08-30T11:50:58;10.73;;;4.18;;
79036;SDS011;68434;59.896;30.474;2023-08-30T11:53:27;13.40;;;5.38;;
79036;SDS011;68434;59.896;30.474;2023-08-30T11:55:57;8.50;;;4.28;;
79036;SDS011;68434;59.896;30.474;2023-08-30T11:58:24;14.43;;;4.72;;
79036;SDS011;68434;59.896;30.474;2023-08-30T12:00:52;10.90;;;3.88;;
79036;SDS011;68434;59.896;30.474;2023-08-30T12:03:21;8.70;;;4.38;;
79036;SDS011;68434;59.896;30.474;2023-08-30T12:05:49;8.20;;;4.10;;
79036;SDS011;68434;59.896;30.474;2023-08-30T12:08:18;8.93;;;3.90;;
79036;SDS011;68434;59.896;30.474;2023-08-30T12:10:46;6.32;;;3.85;;
79036;SDS011;68434;59.896;30.474;2023-08-30T12:13:23;7.07;;;3.28;;
79036;SDS011;68434;59.896;30.474;2023-08-30T12:15:51;4.88;;;2.92;;
79036;SDS011;68434;59.896;30.474;2023-08-30T12:18:22;4.70;;;3.00;;
79036;SDS011;68434;59.896;30.474;2023-08-30T12:20:53;8.95;;;3.10;;
79036;SDS011;68434;59.896;30.474;2023-08-30T12:23:22;8.18;;;2.90;;
79036;SDS011;68434;59.896;30.474;2023-08-30T12:25:56;6.13;;;2.70;;
79036;SDS011;68434;59.896;30.474;2023-08-30T12:28:27;5.75;;;3.13;;
79036;SDS011;68434;59.896;30.474;2023-08-30T12:30:55;5.47;;;2.83;;
79036;SDS011;68434;59.896;30.474;2023-08-30T12:33:23;5.47;;;2.88;;
79036;SDS011;68434;59.896;30.474;2023-08-30T12:35:52;6.82;;;2.70;;
79036;SDS011;68434;59.896;30.474;2023-08-30T12:38:19;6.60;;;2.45;;
79036;SDS011;68434;59.896;30.474;2023-08-30T12:40:47;4.65;;;2.38;;
79036;SDS011;68434;59.896;30.474;2023-08-30T12:43:16;4.90;;;2.22;;
79036;SDS011;68434;59.896;30.474;2023-08-30T12:45:47;4.30;;;2.28;;
79036;SDS011;68434;59.896;30.474;2023-08-30T12:48:15;4.57;;;2.40;;
79036;SDS011;68434;59.896;30.474;2023-08-30T12:50:44;5.18;;;2.65;;
79036;SDS011;68434;59.896;30.474;2023-08-30T12:53:12;4.68;;;2.60;;
79036;SDS011;68434;59.896;30.474;2023-08-30T12:58:07;4.60;;;2.53;;
79036;SDS011;68434;59.896;30.474;2023-08-30T13:03:04;5.03;;;2.45;;
79036;SDS011;68434;59.896;30.474;2023-08-30T13:05:31;22.35;;;5.68;;
79036;SDS011;68434;59.896;30.474;2023-08-30T13:07:59;99.95;;;17.10;;
79036;SDS011;68434;59.896;30.474;2023-08-30T13:10:28;280.70;;;56.38;;
79036;SDS011;68434;59.896;30.474;2023-08-30T13:12:55;291.10;;;58.72;;
79036;SDS011;68434;59.896;30.474;2023-08-30T13:15:23;239.60;;;53.95;;
79036;SDS011;68434;59.896;30.474;2023-08-30T13:17:51;222.07;;;52.28;;
79036;SDS011;68434;59.896;30.474;2023-08-30T13:20:20;203.98;;;46.53;;
79036;SDS011;68434;59.896;30.474;2023-08-30T13:22:48;174.48;;;44.22;;
79036;SDS011;68434;59.896;30.474;2023-08-30T13:25:15;166.10;;;40.63;;
79036;SDS011;68434;59.896;30.474;2023-08-30T13:27:45;147.52;;;39.05;;
79036;SDS011;68434;59.896;30.474;2023-08-30T13:30:13;142.52;;;35.30;;
79036;SDS011;68434;59.896;30.474;2023-08-30T13:32:41;114.82;;;31.83;;
79036;SDS011;68434;59.896;30.474;2023-08-30T13:35:08;108.07;;;28.92;;
79036;SDS011;68434;59.896;30.474;2023-08-30T13:37:37;103.35;;;25.98;;
79036;SDS011;68434;59.896;30.474;2023-08-30T13:40:05;101.90;;;26.67;;
79036;SDS011;68434;59.896;30.474;2023-08-30T13:42:33;91.05;;;25.75;;
79036;SDS011;68434;59.896;30.474;2023-08-30T13:45:06;93.78;;;25.25;;
79036;SDS011;68434;59.896;30.474;2023-08-30T13:47:39;90.28;;;25.45;;
79036;SDS011;68434;59.896;30.474;2023-08-30T13:50:07;87.75;;;23.15;;
79036;SDS011;68434;59.896;30.474;2023-08-30T13:52:38;70.55;;;21.08;;
79036;SDS011;68434;59.896;30.474;2023-08-30T13:55:06;68.57;;;19.88;;
79036;SDS011;68434;59.896;30.474;2023-08-30T13:57:34;62.78;;;19.40;;
79036;SDS011;68434;59.896;30.474;2023-08-30T14:00:09;62.30;;;18.20;;
79036;SDS011;68434;59.896;30.474;2023-08-30T14:02:40;57.22;;;17.05;;
79036;SDS011;68434;59.896;30.474;2023-08-30T14:05:08;53.78;;;15.90;;
79036;SDS011;68434;59.896;30.474;2023-08-30T14:10:05;53.55;;;15.90;;
79036;SDS011;68434;59.896;30.474;2023-08-30T14:12:33;44.47;;;14.98;;
79036;SDS011;68434;59.896;30.474;2023-08-30T14:15:00;47.55;;;14.43;;
79036;SDS011;68434;59.896;30.474;2023-08-30T14:17:30;43.05;;;13.15;;
79036;SDS011;68434;59.896;30.474;2023-08-30T14:19:57;44.20;;;13.48;;
79036;SDS011;68434;59.896;30.474;2023-08-30T14:22:25;46.20;;;14.07;;
79036;SDS011;68434;59.896;30.474;2023-08-30T14:24:52;44.30;;;13.13;;
79036;SDS011;68434;59.896;30.474;2023-08-30T14:27:21;33.65;;;11.95;;
79036;SDS011;68434;59.896;30.474;2023-08-30T14:29:49;30.73;;;11.10;;
79036;SDS011;68434;59.896;30.474;2023-08-30T14:32:16;27.63;;;8.35;;
79036;SDS011;68434;59.896;30.474;2023-08-30T14:34:44;35.67;;;9.73;;
79036;SDS011;68434;59.896;30.474;2023-08-30T14:37:11;29.48;;;8.40;;
79036;SDS011;68434;59.896;30.474;2023-08-30T14:39:39;19.90;;;8.38;;
79036;SDS011;68434;59.896;30.474;2023-08-30T14:42:06;17.30;;;8.82;;
79036;SDS011;68434;59.896;30.474;2023-08-30T14:44:35;20.27;;;9.18;;
79036;SDS011;68434;59.896;30.474;2023-08-30T14:47:03;18.98;;;7.90;;
79036;SDS011;68434;59.896;30.474;2023-08-30T14:49:33;15.43;;;6.45;;
79036;SDS011;68434;59.896;30.474;2023-08-30T14:52:00;22.15;;;8.43;;
79036;SDS011;68434;59.896;30.474;2023-08-30T14:54:28;13.68;;;7.15;;
79036;SDS011;68434;59.896;30.474;2023-08-30T14:56:55;17.52;;;7.97;;
79036;SDS011;68434;59.896;30.474;2023-08-30T14:59:23;16.25;;;8.25;;
79036;SDS011;68434;59.896;30.474;2023-08-30T15:01:52;16.88;;;7.43;;
79036;SDS011;68434;59.896;30.474;2023-08-30T15:04:19;19.65;;;7.05;;
79036;SDS011;68434;59.896;30.474;2023-08-30T15:06:47;15.65;;;7.25;;